^^
Saratoga-Weather Station Historical Data
Daily Summary for January 23, 2021 Units:  English    Metric   Both
Daily Weekly Monthly Yearly Custom
  High: Low: Average:
Temperature: 75.7 °F 59.4 °F 65.8 °F
Dew Point: 61.3 °F 57 °F 59 °F
Humidity: 94% 56% 80%
Wind Speed: 6.9mph 0mph 1.6mph
Wind Gust: 11mph - -
Wind- - SSW
Pressure: 30.1 in 30 in -
Precipitation: 0 in    
Historical Graphs
 
 
Tabular Data for January 23, 2021
Time Temperature Dew Point Pressure Wind Wind Speed Wind Gust Humidity Rainfall Rate (Hourly) solar
00:02 61 °F 59 °F 30 in West 0.9 mph 3 mph 93% 0 in 0 W/m2
00:07 60.8 °F 58.8 °F 30 in NW 2 mph 2 mph 93% 0 in 0 W/m2
00:12 61 °F 59 °F 30 in Calm   2 mph 93% 0 in 0 W/m2
00:17 61 °F 59 °F 30 in NNW 2 mph 3 mph 93% 0 in 0 W/m2
00:22 61 °F 58.6 °F 30 in Calm   1 mph 92% 0 in 0 W/m2
00:27 61 °F 58.6 °F 30 in SE 0.9 mph 5 mph 92% 0 in 0 W/m2
00:32 61 °F 58.6 °F 30 in Calm   3 mph 92% 0 in 0 W/m2
00:37 61 °F 58.6 °F 30 in Calm   5 mph 92% 0 in 0 W/m2
00:42 61 °F 58.6 °F 30 in Calm   1 mph 92% 0 in 0 W/m2
00:47 61 °F 58.6 °F 30 in ENE 0.9 mph 1 mph 92% 0 in 0 W/m2
00:52 60.8 °F 58.8 °F 30 in NE 2 mph 2 mph 93% 0 in 0 W/m2
00:57 60.6 °F 58.3 °F 30 in Calm     92% 0 in 0 W/m2
01:02 60.6 °F 58.3 °F 30 in Calm     92% 0 in 0 W/m2
01:07 60.6 °F 58.3 °F 30 in Calm   1 mph 92% 0 in 0 W/m2
01:12 60.6 °F 58.6 °F 30 in Calm   1 mph 93% 0 in 0 W/m2
01:17 60.6 °F 58.6 °F 30 in Calm   2 mph 93% 0 in 0 W/m2
01:22 60.6 °F 58.6 °F 30 in Calm   1 mph 93% 0 in 0 W/m2
01:27 60.4 °F 58.5 °F 30 in Calm     93% 0 in 0 W/m2
01:32 60.4 °F 58.5 °F 30 in Calm     93% 0 in 0 W/m2
01:37 60.4 °F 58.5 °F 30 in NNW 0.9 mph 1 mph 93% 0 in 0 W/m2
01:42 60.4 °F 58.5 °F 30 in NNE 0.9 mph 1 mph 93% 0 in 0 W/m2
01:47 60.4 °F 58.5 °F 30 in Calm   6 mph 93% 0 in 0 W/m2
01:52 60.4 °F 58.5 °F 30 in Calm   1 mph 93% 0 in 0 W/m2
01:57 60.4 °F 58.5 °F 30 in WNW 2 mph 4 mph 93% 0 in 0 W/m2
02:02 60.4 °F 58.5 °F 30 in West 0.9 mph 2 mph 93% 0 in 0 W/m2
02:07 60.3 °F 58.3 °F 30 in West 2 mph 2 mph 93% 0 in 0 W/m2
02:12 60.3 °F 58.3 °F 30 in Calm   2 mph 93% 0 in 0 W/m2
02:17 60.3 °F 58.3 °F 30 in Calm   2 mph 93% 0 in 0 W/m2
02:22 60.3 °F 58.3 °F 30 in Calm   2 mph 93% 0 in 0 W/m2
02:27 60.3 °F 58.3 °F 30 in NNW 0.9 mph 2 mph 93% 0 in 0 W/m2
02:32 60.3 °F 58.3 °F 30 in NW 0.9 mph 3 mph 93% 0 in 0 W/m2
02:37 60.3 °F 58.3 °F 30 in ESE 0.9 mph 5 mph 93% 0 in 0 W/m2
02:42 60.3 °F 58.3 °F 30 in Calm   2 mph 93% 0 in 0 W/m2
02:47 60.3 °F 58.3 °F 30 in Calm   5 mph 93% 0 in 0 W/m2
02:52 60.3 °F 58.3 °F 30 in Calm   1 mph 93% 0 in 0 W/m2
02:57 60.1 °F 58.1 °F 30 in Calm   1 mph 93% 0 in 0 W/m2
03:02 60.1 °F 58.1 °F 30 in Calm     93% 0 in 0 W/m2
03:07 60.1 °F 58.1 °F 30 in Calm   1 mph 93% 0 in 0 W/m2
03:12 60.1 °F 58.1 °F 30 in East 2 mph 2 mph 93% 0 in 0 W/m2
03:17 60.1 °F 58.1 °F 30 in East 0.9 mph 2 mph 93% 0 in 0 W/m2
03:22 59.9 °F 57.9 °F 30 in Calm   2 mph 93% 0 in 0 W/m2
03:27 59.9 °F 57.9 °F 30 in Calm     93% 0 in 0 W/m2
03:32 59.7 °F 57.7 °F 30 in Calm   1 mph 93% 0 in 0 W/m2
03:37 59.7 °F 57.7 °F 30 in Calm     93% 0 in 0 W/m2
03:42 59.7 °F 57.7 °F 30 in Calm     93% 0 in 0 W/m2
03:47 59.7 °F 57.7 °F 30 in Calm   1 mph 93% 0 in 0 W/m2
03:52 59.5 °F 57.7 °F 30 in Calm     94% 0 in 0 W/m2
03:57 59.5 °F 57.7 °F 30 in Calm     94% 0 in 0 W/m2
04:02 59.5 °F 57.7 °F 30 in Calm     94% 0 in 0 W/m2
04:07 59.5 °F 57.7 °F 30 in Calm     94% 0 in 0 W/m2
04:12 59.5 °F 57.7 °F 30 in North 0.9 mph 1 mph 94% 0 in 0 W/m2
04:17 59.5 °F 57.7 °F 30 in Calm   2 mph 94% 0 in 0 W/m2
04:22 59.5 °F 57.7 °F 30 in Calm   1 mph 94% 0 in 0 W/m2
04:27 59.5 °F 57.7 °F 30 in Calm   2 mph 94% 0 in 0 W/m2
04:32 59.5 °F 57.7 °F 30 in Calm   1 mph 94% 0 in 0 W/m2
04:37 59.5 °F 57.7 °F 30 in Calm     94% 0 in 0 W/m2
04:42 59.5 °F 57.7 °F 30 in WSW 0.9 mph 1 mph 94% 0 in 0 W/m2
04:47 59.5 °F 57.7 °F 30 in West 0.9 mph 1 mph 94% 0 in 0 W/m2
04:52 59.5 °F 57.7 °F 30 in ENE 0.9 mph 3 mph 94% 0 in 0 W/m2
04:57 59.5 °F 57.7 °F 30 in ESE 0.9 mph 2 mph 94% 0 in 0 W/m2
05:02 59.5 °F 57.7 °F 30 in NNW 2 mph 4 mph 94% 0 in 0 W/m2
05:07 59.5 °F 57.7 °F 30 in Calm   1 mph 94% 0 in 0 W/m2
05:12 59.5 °F 57.7 °F 30 in Calm   4 mph 94% 0 in 0 W/m2
05:17 59.5 °F 57.7 °F 30 in NE 0.9 mph 2 mph 94% 0 in 0 W/m2
05:22 59.5 °F 57.7 °F 30 in Calm   3 mph 94% 0 in 0 W/m2
05:27 59.5 °F 57.7 °F 30 in NE 0.9 mph 4 mph 94% 0 in 0 W/m2
05:32 59.4 °F 57.6 °F 30 in East 2 mph 3 mph 94% 0 in 0 W/m2
05:37 59.4 °F 57.6 °F 30 in NE 2 mph 4 mph 94% 0 in 0 W/m2
05:42 59.4 °F 57.6 °F 30 in NE 0.9 mph 3 mph 94% 0 in 0 W/m2
05:48 59.4 °F 57.6 °F 30 in East 0.9 mph 3 mph 94% 0 in 0 W/m2
05:53 59.4 °F 57.6 °F 30 in Calm   4 mph 94% 0 in 5 W/m2
05:58 59.4 °F 57.6 °F 30 in NE 0.9 mph 1 mph 94% 0 in 5 W/m2
06:03 59.4 °F 57.6 °F 30 in Calm   2 mph 94% 0 in 7 W/m2
06:08 59.4 °F 57.6 °F 30 in Calm     94% 0 in 12 W/m2
06:13 59.4 °F 57.6 °F 30 in Calm   1 mph 94% 0 in 18 W/m2
06:18 59.5 °F 57.7 °F 30 in East 2.9 mph 3 mph 94% 0 in 25 W/m2
06:23 59.5 °F 57.7 °F 30 in NNW 0.9 mph 3 mph 94% 0 in 18 W/m2
06:28 59.5 °F 57.7 °F 30 in Calm   2 mph 94% 0 in 19 W/m2
06:33 59.5 °F 57.7 °F 30 in ENE 4 mph 5 mph 94% 0 in 28 W/m2
06:38 59.5 °F 57.7 °F 30 in ENE 0.9 mph 3 mph 94% 0 in 40 W/m2
06:43 59.7 °F 57.9 °F 30 in Calm   5 mph 94% 0 in 30 W/m2
06:48 59.7 °F 57.9 °F 30 in NNW 0.9 mph 2 mph 94% 0 in 21 W/m2
06:53 59.7 °F 57.9 °F 30 in NW 2 mph 5 mph 94% 0 in 21 W/m2
06:58 59.7 °F 57.9 °F 30 in NNW 0.9 mph 2 mph 94% 0 in 23 W/m2
07:03 59.7 °F 57.7 °F 30 in ENE 2.9 mph 3 mph 93% 0 in 51 W/m2
07:08 59.9 °F 58.1 °F 30 in Calm   1 mph 94% 0 in 63 W/m2
07:13 60.1 °F 58.3 °F 30 in Calm   1 mph 94% 0 in 83 W/m2
07:18 60.1 °F 58.1 °F 30 in NNW 2 mph 3 mph 93% 0 in 76 W/m2
07:23 60.3 °F 58.3 °F 30 in NE 0.9 mph 2 mph 93% 0 in 67 W/m2
07:28 60.3 °F 58.3 °F 30 in WNW 2 mph 3 mph 93% 0 in 54 W/m2
07:33 60.3 °F 58.3 °F 30 in Calm   3 mph 93% 0 in 54 W/m2
07:38 60.4 °F 58.5 °F 30 in North 0.9 mph 1 mph 93% 0 in 58 W/m2
07:43 60.4 °F 58.5 °F 30 in East 2.9 mph 3 mph 93% 0 in 69 W/m2
07:48 60.4 °F 58.5 °F 30 in NE 2.9 mph 3 mph 93% 0 in 76 W/m2
07:53 60.6 °F 58.6 °F 30 in NNW 0.9 mph 1 mph 93% 0 in 84 W/m2
07:58 60.6 °F 58.3 °F 30 in NNE 0.9 mph 2 mph 92% 0 in 79 W/m2
08:03 60.8 °F 58.5 °F 30 in NNW 2 mph 4 mph 92% 0 in 69 W/m2
08:08 61 °F 58.6 °F 30 in NNW 0.9 mph 3 mph 92% 0 in 109 W/m2
08:13 61.2 °F 58.8 °F 30 in East 2 mph 3 mph 92% 0 in 125 W/m2
08:18 61.3 °F 59 °F 30 in SE 0.9 mph 3 mph 92% 0 in 132 W/m2
08:23 61.5 °F 59.2 °F 30 in ENE 0.9 mph 5 mph 92% 0 in 121 W/m2
08:28 61.5 °F 59.2 °F 30 in NW 0.9 mph 5 mph 92% 0 in 105 W/m2
08:33 61.9 °F 59.2 °F 30 in NNE 0.9 mph 4 mph 91% 0 in 128 W/m2
08:38 61.9 °F 59 °F 30 in ENE 2.9 mph 5 mph 90% 0 in 130 W/m2
08:43 62.1 °F 59.2 °F 30 in East 0.9 mph 3 mph 90% 0 in 120 W/m2
08:48 62.1 °F 59.2 °F 30 in East 0.9 mph 2 mph 90% 0 in 132 W/m2
08:53 62.2 °F 59.2 °F 30 in Calm   3 mph 90% 0 in 104 W/m2
08:58 62.2 °F 59.2 °F 30 in Calm   2 mph 90% 0 in 81 W/m2
09:03 62.4 °F 59.2 °F 30 in NE 2 mph 2 mph 89% 0 in 91 W/m2
09:08 62.4 °F 59.2 °F 30 in Calm   2 mph 89% 0 in 100 W/m2
09:13 62.4 °F 59.2 °F 30 in NNW 0.9 mph 2 mph 89% 0 in 91 W/m2
09:18 62.6 °F 59.4 °F 30 in Calm   2 mph 89% 0 in 107 W/m2
09:23 62.8 °F 59.5 °F 30 in Calm   1 mph 89% 0 in 93 W/m2
09:28 62.6 °F 59 °F 30 in Calm   5 mph 88% 0 in 121 W/m2
09:33 62.8 °F 59.5 °F 30.1 in Calm   2 mph 89% 0 in 121 W/m2
09:38 62.8 °F 59.2 °F 30.1 in East 2 mph 5 mph 88% 0 in 123 W/m2
09:43 62.8 °F 59.2 °F 30.1 in Calm   4 mph 88% 0 in 153 W/m2
09:48 62.8 °F 59.2 °F 30.1 in East 0.9 mph 1 mph 88% 0 in 142 W/m2
09:53 63 °F 59.4 °F 30.1 in Calm     88% 0 in 127 W/m2
09:58 63 °F 59.4 °F 30.1 in NE 0.9 mph 2 mph 88% 0 in 141 W/m2
10:03 63.1 °F 59.5 °F 30.1 in Calm   1 mph 88% 0 in 144 W/m2
10:08 63.1 °F 59.2 °F 30.1 in Calm   4 mph 87% 0 in 158 W/m2
10:13 63.3 °F 59.4 °F 30.1 in NE 2 mph 3 mph 87% 0 in 156 W/m2
10:18 63.3 °F 59.4 °F 30.1 in NE 0.9 mph 1 mph 87% 0 in 155 W/m2
10:23 63.3 °F 59.4 °F 30.1 in ENE 2 mph 4 mph 87% 0 in 144 W/m2
10:28 63.5 °F 59.5 °F 30.1 in East 0.9 mph 1 mph 87% 0 in 190 W/m2
10:33 63.7 °F 59.7 °F 30.1 in North 0.9 mph 4 mph 87% 0 in 192 W/m2
10:38 63.9 °F 59.9 °F 30.1 in Calm   4 mph 87% 0 in 132 W/m2
10:43 63.9 °F 59.5 °F 30.1 in NNE 0.9 mph 2 mph 86% 0 in 93 W/m2
10:48 63.9 °F 59.5 °F 30.1 in Calm   3 mph 86% 0 in 86 W/m2
10:54 63.9 °F 59.2 °F 30.1 in East 0.9 mph 4 mph 85% 0 in 79 W/m2
10:59 63.9 °F 59.2 °F 30.1 in ENE 0.9 mph 3 mph 85% 0 in 127 W/m2
11:04 63.9 °F 59.2 °F 30.1 in Calm   4 mph 85% 0 in 163 W/m2
11:09 64 °F 59.7 °F 30.1 in East 2 mph 2 mph 86% 0 in 185 W/m2
11:14 64.2 °F 59.5 °F 30.1 in Calm   2 mph 85% 0 in 156 W/m2
11:19 64.4 °F 59.7 °F 30.1 in NNW 2 mph 2 mph 85% 0 in 165 W/m2
11:24 64.4 °F 59.7 °F 30.1 in Calm   3 mph 85% 0 in 207 W/m2
11:29 64.6 °F 59.7 °F 30.1 in Calm   3 mph 84% 0 in 209 W/m2
11:34 64.6 °F 59.7 °F 30.1 in East 2 mph 4 mph 84% 0 in 207 W/m2
11:39 64.8 °F 60.1 °F 30.1 in ENE 2 mph 2 mph 85% 0 in 204 W/m2
11:44 64.8 °F 59.5 °F 30.1 in Calm   3 mph 83% 0 in 220 W/m2
11:49 64.9 °F 59.7 °F 30.1 in NE 2 mph 3 mph 83% 0 in 227 W/m2
11:54 64.9 °F 59.7 °F 30.1 in Calm   3 mph 83% 0 in 258 W/m2
11:59 65.5 °F 59.9 °F 30.1 in East 0.9 mph 2 mph 82% 0 in 297 W/m2
12:04 65.7 °F 60.1 °F 30.1 in NW 0.9 mph 2 mph 82% 0 in 457 W/m2
12:09 66.4 °F 61.3 °F 30.1 in NNE 2 mph 3 mph 84% 0 in 1137 W/m2
12:14 66.9 °F 60.6 °F 30.1 in Calm     80% 0 in 970 W/m2
12:19 67.8 °F 61.3 °F 30.1 in NW 0.9 mph 3 mph 80% 0 in 969 W/m2
12:24 68.4 °F 61.2 °F 30.1 in NNW 0.9 mph 4 mph 78% 0 in 960 W/m2
12:29 68.7 °F 61.2 °F 30 in East 2 mph 3 mph 77% 0 in 1005 W/m2
12:34 69.6 °F 61.3 °F 30 in SE 2 mph 4 mph 75% 0 in 1085 W/m2
12:39 70.2 °F 61.2 °F 30 in NE 0.9 mph 3 mph 73% 0 in 297 W/m2
12:44 69.8 °F 60.4 °F 30 in Calm   3 mph 72% 0 in 446 W/m2
12:49 69.4 °F 60.1 °F 30 in ENE 2.9 mph 3 mph 72% 0 in 267 W/m2
12:54 68.9 °F 60.6 °F 30 in Calm   1 mph 75% 0 in 267 W/m2
12:59 68.7 °F 59.7 °F 30 in ESE 0.9 mph 3 mph 73% 0 in 348 W/m2
13:04 69.1 °F 60.8 °F 30 in ENE 2.9 mph 3 mph 75% 0 in 1150 W/m2
13:09 70 °F 61 °F 30.1 in ENE 2 mph 6 mph 73% 0 in 452 W/m2
13:14 70.2 °F 60.6 °F 30.1 in ENE 2 mph 3 mph 72% 0 in 411 W/m2
13:19 70.3 °F 60.8 °F 30 in East 4 mph 6 mph 72% 0 in 540 W/m2
13:24 70.5 °F 60.3 °F 30 in SE 2.9 mph 4 mph 70% 0 in 1136 W/m2
13:29 70.9 °F 60.3 °F 30 in NE 4 mph 4 mph 69% 0 in 1072 W/m2
13:34 71.4 °F 60.3 °F 30 in Calm   4 mph 68% 0 in 1181 W/m2
13:39 71.4 °F 59.9 °F 30 in East 0.9 mph 4 mph 67% 0 in 1181 W/m2
13:44 71.8 °F 59.4 °F 30.1 in SE 2 mph 3 mph 65% 0 in 838 W/m2
13:49 71.8 °F 60.3 °F 30 in West 6 mph 6 mph 67% 0 in 1183 W/m2
13:54 71.8 °F 60.3 °F 30 in NE 2 mph 2 mph 67% 0 in 1160 W/m2
13:59 72.1 °F 60.6 °F 30 in South 2 mph 6 mph 67% 0 in 1083 W/m2
14:04 72.7 °F 61.2 °F 30 in Calm   1 mph 67% 0 in 1136 W/m2
14:09 73.2 °F 60.8 °F 30 in ESE 4 mph 6 mph 65% 0 in 1065 W/m2
14:14 73.8 °F 60.8 °F 30 in Calm   5 mph 64% 0 in 1037 W/m2
14:19 73.8 °F 59.5 °F 30 in NNW 0.9 mph 1 mph 61% 0 in 237 W/m2
14:24 73.6 °F 59.7 °F 30 in ESE 2 mph 4 mph 62% 0 in 211 W/m2
14:29 73 °F 58.8 °F 30 in ENE 4.9 mph 5 mph 61% 0 in 234 W/m2
14:34 73 °F 58.8 °F 30 in SE 0.9 mph 3 mph 61% 0 in 214 W/m2
14:39 72.9 °F 59.5 °F 30 in SE 5 mph 5 mph 63% 0 in 327 W/m2
14:44 72.9 °F 59.9 °F 30 in NW 2 mph 4 mph 64% 0 in 320 W/m2
14:49 72.7 °F 59.7 °F 30 in NW 2.9 mph 5 mph 64% 0 in 1127 W/m2
14:54 73 °F 59.2 °F 30 in North 4 mph 10 mph 62% 0 in 367 W/m2
14:59 72.9 °F 58.6 °F 30 in WNW 0.9 mph 5 mph 61% 0 in 694 W/m2
15:04 72.7 °F 59.4 °F 30 in East 2 mph 10 mph 63% 0 in 364 W/m2
15:09 72.9 °F 59 °F 30 in WNW 2.9 mph 4 mph 62% 0 in 267 W/m2
15:14 72.7 °F 59.4 °F 30 in NNW 0.9 mph 6 mph 63% 0 in 330 W/m2
15:19 72.9 °F 59.9 °F 30 in ENE 2 mph 4 mph 64% 0 in 406 W/m2
15:24 73.6 °F 59.7 °F 30 in West 2 mph 5 mph 62% 0 in 406 W/m2
15:29 73.4 °F 59.2 °F 30 in SSW 0.9 mph 4 mph 61% 0 in 446 W/m2
15:34 73.2 °F 59.4 °F 30 in ENE 2.9 mph 3 mph 62% 0 in 480 W/m2
15:39 73.4 °F 59.2 °F 30 in Calm   4 mph 61% 0 in 1085 W/m2
15:44 74.1 °F 59.7 °F 30 in NNW 4 mph 6 mph 61% 0 in 977 W/m2
15:49 74.5 °F 60.6 °F 30 in NNE 2.9 mph 3 mph 62% 0 in 710 W/m2
15:54 74.5 °F 59.7 °F 30 in ENE 2 mph 5 mph 60% 0 in 294 W/m2
15:59 74.1 °F 59.4 °F 30 in Calm   4 mph 60% 0 in 366 W/m2
16:04 73.9 °F 59.7 °F 30 in WNW 4 mph 7 mph 61% 0 in 229 W/m2
16:09 73.6 °F 59.4 °F 30 in SSW 2 mph 4 mph 61% 0 in 216 W/m2
16:14 73.2 °F 59 °F 30 in North 0.9 mph 7 mph 61% 0 in 221 W/m2
16:19 73.2 °F 59 °F 30 in ESE 0.9 mph 4 mph 61% 0 in 255 W/m2
16:24 73.4 °F 59.2 °F 30 in East 0.9 mph 3 mph 61% 0 in 197 W/m2
16:29 73.4 °F 58.6 °F 30 in ENE 0.9 mph 2 mph 60% 0 in 176 W/m2
16:34 73.4 °F 59.5 °F 30 in Calm   3 mph 62% 0 in 141 W/m2
16:39 73 °F 58.8 °F 30 in NW 2 mph 4 mph 61% 0 in 132 W/m2
16:44 73 °F 59.2 °F 30 in ENE 0.9 mph 4 mph 62% 0 in 149 W/m2
16:49 72.9 °F 59.5 °F 30 in NE 2 mph 3 mph 63% 0 in 172 W/m2
16:54 72.9 °F 59.5 °F 30 in North 0.9 mph 4 mph 63% 0 in 125 W/m2
16:59 72.9 °F 59.5 °F 30 in NW 2 mph 4 mph 63% 0 in 691 W/m2
17:04 73.6 °F 59.7 °F 30 in Calm   3 mph 62% 0 in 693 W/m2
17:09 73.8 °F 59 °F 30 in East 0.9 mph 3 mph 60% 0 in 148 W/m2
17:14 73.8 °F 59.9 °F 30 in WNW 2 mph 3 mph 62% 0 in 162 W/m2
17:19 73.9 °F 59.2 °F 30 in Calm     60% 0 in 687 W/m2
17:24 74.7 °F 58.8 °F 30 in NW 2 mph 3 mph 58% 0 in 148 W/m2
17:29 74.7 °F 59.4 °F 30 in ESE 2 mph 4 mph 59% 0 in 624 W/m2
17:34 74.8 °F 60.4 °F 30 in NW 2 mph 5 mph 61% 0 in 629 W/m2
17:39 75.6 °F 60.3 °F 30 in ENE 2.9 mph 4 mph 59% 0 in 564 W/m2
17:44 75.7 °F 59.9 °F 30 in Calm   3 mph 58% 0 in 499 W/m2
17:49 75.6 °F 59.7 °F 30 in NW 4 mph 5 mph 58% 0 in 118 W/m2
17:54 74.8 °F 59.5 °F 30 in West 4 mph 6 mph 59% 0 in 517 W/m2
17:59 74.5 °F 59.2 °F 30 in West 4 mph 4 mph 59% 0 in 118 W/m2
18:04 74.5 °F 59.2 °F 30 in WNW 4 mph 4 mph 59% 0 in 584 W/m2
18:09 74.7 °F 58.8 °F 30 in NW 0.9 mph 3 mph 58% 0 in 153 W/m2
18:14 74.8 °F 59.5 °F 30 in NNW 2 mph 2 mph 59% 0 in 522 W/m2
18:19 75.4 °F 59 °F 30 in WNW 4 mph 8 mph 57% 0 in 482 W/m2
18:24 75.4 °F 58.6 °F 30 in NNW 4 mph 8 mph 56% 0 in 443 W/m2
18:30 75 °F 58.3 °F 30 in WNW 2.9 mph 6 mph 56% 0 in 323 W/m2
18:35 74.5 °F 58.3 °F 30 in WNW 2.9 mph 8 mph 57% 0 in 67 W/m2
18:40 73.9 °F 59.2 °F 30 in WSW 2.9 mph 4 mph 60% 0 in 56 W/m2
18:45 73.2 °F 59 °F 30 in NW 2 mph 5 mph 61% 0 in 56 W/m2
18:50 72.9 °F 59 °F 30 in West 2.9 mph 4 mph 62% 0 in 60 W/m2
18:55 72.1 °F 58.8 °F 30 in WSW 4 mph 6 mph 63% 0 in 62 W/m2
19:00 71.8 °F 59.7 °F 30 in WNW 4 mph 4 mph 66% 0 in 76 W/m2
19:05 71.4 °F 59.5 °F 30 in WNW 2.9 mph 4 mph 66% 0 in 81 W/m2
19:10 71.2 °F 58.8 °F 30 in West 2.9 mph 6 mph 65% 0 in 98 W/m2
19:15 71.2 °F 58.8 °F 30 in WNW 4.9 mph 8 mph 65% 0 in 95 W/m2
19:20 71.2 °F 58.8 °F 30 in West 6 mph 9 mph 65% 0 in 98 W/m2
19:25 71.1 °F 59.9 °F 30 in West 4 mph 7 mph 68% 0 in 105 W/m2
19:30 70.7 °F 60.1 °F 30 in West 4 mph 8 mph 69% 0 in 107 W/m2
19:35 70.5 °F 60.3 °F 30 in West 6 mph 6 mph 70% 0 in 111 W/m2
19:40 70.5 °F 60.3 °F 30 in NW 0.9 mph 8 mph 70% 0 in 113 W/m2
19:45 70.5 °F 60.3 °F 30 in WNW 4 mph 7 mph 70% 0 in 105 W/m2
19:50 70.5 °F 60.6 °F 30 in West 2.9 mph 6 mph 71% 0 in 98 W/m2
19:55 70.5 °F 60.6 °F 30 in WNW 4 mph 6 mph 71% 0 in 102 W/m2
20:00 70.3 °F 60.1 °F 30 in WNW 2.9 mph 10 mph 70% 0 in 109 W/m2
20:05 70.3 °F 60.1 °F 30 in WNW 4.9 mph 8 mph 70% 0 in 109 W/m2
20:10 70.3 °F 60.4 °F 30 in WNW 2.9 mph 10 mph 71% 0 in 104 W/m2
20:15 70.2 °F 60.3 °F 30 in NW 2 mph 8 mph 71% 0 in 113 W/m2
20:20 70.3 °F 60.8 °F 30 in WNW 2.9 mph 9 mph 72% 0 in 91 W/m2
20:25 70.2 °F 60.6 °F 30 in West 6 mph 10 mph 72% 0 in 77 W/m2
20:30 70 °F 61 °F 30 in WNW 2 mph 5 mph 73% 0 in 70 W/m2
20:35 69.6 °F 61 °F 30 in WNW 4 mph 9 mph 74% 0 in 62 W/m2
20:40 69.4 °F 60.8 °F 30 in NW 2 mph 7 mph 74% 0 in 44 W/m2
20:45 69.3 °F 60.6 °F 30 in West 6.9 mph 9 mph 74% 0 in 42 W/m2
20:50 69.1 °F 60.8 °F 30 in WNW 4 mph 6 mph 75% 0 in 44 W/m2
20:55 68.9 °F 60.6 °F 30 in West 2.9 mph 10 mph 75% 0 in 47 W/m2
21:00 68.9 °F 60.6 °F 30 in West 2 mph 4 mph 75% 0 in 44 W/m2
21:05 68.9 °F 60.6 °F 30 in West 2 mph 10 mph 75% 0 in 40 W/m2
21:10 69.1 °F 60.8 °F 30 in WNW 2 mph 4 mph 75% 0 in 37 W/m2
21:15 68.7 °F 60.4 °F 30 in West 2.9 mph 9 mph 75% 0 in 32 W/m2
21:20 68.5 °F 60.6 °F 30 in WNW 6.9 mph 7 mph 76% 0 in 28 W/m2
21:25 68.4 °F 60.4 °F 30 in WSW 4 mph   76% 0 in 23 W/m2
21:30 68.2 °F 60.6 °F 30 in North 4 mph 4 mph 77% 0 in 14 W/m2
21:35 68 °F 60.4 °F 30 in NW 0.9 mph 4 mph 77% 0 in 9 W/m2
21:40 67.8 °F 60.3 °F 30 in North 2 mph 7 mph 77% 0 in 5 W/m2
21:45 67.6 °F 60.3 °F 30 in West 4 mph 11 mph 77% 0 in 5 W/m2
21:50 67.5 °F 60.1 °F 30 in NNW 2 mph 5 mph 77% 0 in 0 W/m2
21:55 67.3 °F 59.9 °F 30 in WNW 4 mph 11 mph 77% 0 in 0 W/m2
22:00 67.1 °F 59.7 °F 30 in West 2 mph 4 mph 77% 0 in 0 W/m2
22:05 66.9 °F 59.9 °F 30 in West 6 mph 10 mph 78% 0 in 0 W/m2
22:10 66.6 °F 59.5 °F 30 in West 2.9 mph 7 mph 78% 0 in 0 W/m2
22:15 66.4 °F 59.4 °F 30 in NW 2 mph 10 mph 78% 0 in 0 W/m2
22:20 66.4 °F 59.4 °F 30 in West 2 mph 4 mph 78% 0 in 0 W/m2
22:26 66 °F 59.4 °F 30 in West 2 mph 4 mph 79% 0 in 0 W/m2
22:31 65.8 °F 59.2 °F 30 in West 2 mph 5 mph 79% 0 in 0 W/m2
22:36 65.8 °F 59.2 °F 30 in WNW 2 mph 5 mph 79% 0 in 0 W/m2
22:41 65.7 °F 58.6 °F 30 in West 2.9 mph 8 mph 78% 0 in 0 W/m2
22:46 65.5 °F 58.5 °F 30 in WNW 4 mph 4 mph 78% 0 in 0 W/m2
22:51 65.3 °F 58.3 °F 30 in WNW 2 mph 4 mph 78% 0 in 0 W/m2
22:56 65.1 °F 58.1 °F 30 in Calm   4 mph 78% 0 in 0 W/m2
23:01 64.9 °F 58.3 °F 30 in Calm   2 mph 79% 0 in 0 W/m2
23:06 64.9 °F 58.3 °F 30 in ENE 0.9 mph 3 mph 79% 0 in 0 W/m2
23:11 64.8 °F 58.1 °F 30 in NNE 0.9 mph 2 mph 79% 0 in 0 W/m2
23:16 64.6 °F 58.3 °F 30 in WNW 0.9 mph 4 mph 80% 0 in 0 W/m2
23:21 64.4 °F 58.1 °F 30 in WNW 2.9 mph 3 mph 80% 0 in 0 W/m2
23:26 64.2 °F 57.9 °F 30 in NW 2 mph 5 mph 80% 0 in 0 W/m2
23:31 64 °F 58.1 °F 30 in NW 0.9 mph 3 mph 81% 0 in 0 W/m2
23:36 63.9 °F 57.9 °F 30 in West 0.9 mph 4 mph 81% 0 in 0 W/m2
23:41 63.5 °F 57.6 °F 30.1 in West 0.9 mph 3 mph 81% 0 in 0 W/m2
23:46 63.3 °F 57.4 °F 30.1 in Calm   2 mph 81% 0 in 0 W/m2
23:51 63.1 °F 57.2 °F 30.1 in ENE 0.9 mph 1 mph 81% 0 in 0 W/m2
23:56 63 °F 57 °F 30.1 in North 0.9 mph 2 mph 81% 0 in 0 W/m2
Juneau County Weather
Compliments of Weather Underground - 2 mb